Terminal Aerodrome Forecast
Issued by NWS

Home | Current Version | Previous Version | Text Only | Print | Product List | Glossary On
Versions: 1 2 3 4 5 6 7 8 9 10 11 12 13 14 15 16 17 18 19 20 21 22 23 24 25 26 27 28 29 30 31 32
000
FTUS45 KGJT 012322
TAFDRO
TAF
KDRO 012322Z 0200/0224 35015KT P6SM -TSRA SCT045 BKN070CB
      TEMPO 0200/0201 VRB15G25KT 5SM TSRA BKN045CB OVC070
     FM020100 03005KT P6SM VCTS SCT070CB BKN100
      TEMPO 0201/0204 -SHRA BKN070
     FM020400 04004KT P6SM VCSH SCT080 BKN120
     FM021200 09003KT P6SM SCT120
     FM022000 34007KT P6SM VCTS SCT080CB BKN110=

USA.gov is the U.S. government's official web portal to all federal, state and local government web resources and services.